createdAt,value
2022-09-05T00:01:27.616Z,5.10
2022-09-05T00:04:23.568Z,5.50
2022-09-05T00:06:58.704Z,5.40
2022-09-05T00:09:43.923Z,5.27
2022-09-05T00:12:13.199Z,5.27
2022-09-05T00:15:17.796Z,4.90
2022-09-05T00:18:42.475Z,4.93
2022-09-05T00:24:31.278Z,4.93
2022-09-05T00:24:35.279Z,5.43
2022-09-05T00:26:52.264Z,5.30
2022-09-05T00:29:39.676Z,5.20
2022-09-05T00:32:23.735Z,5.50
2022-09-05T00:35:06.227Z,5.30
2022-09-05T00:37:38.238Z,5.40
2022-09-05T00:40:18.554Z,5.07
2022-09-05T00:42:49.759Z,5.50
2022-09-05T00:45:25.228Z,4.73
2022-09-05T00:47:59.175Z,4.73
2022-09-05T00:50:31.629Z,4.50
2022-09-05T00:53:06.846Z,5.07
2022-09-05T00:55:41.869Z,5.20
2022-09-05T00:58:19.228Z,5.00
2022-09-05T01:00:52.884Z,4.90
2022-09-05T01:03:33.503Z,5.40
2022-09-05T01:06:11.450Z,5.60
2022-09-05T01:09:07.386Z,5.03
2022-09-05T01:11:57.454Z,5.40
2022-09-05T01:14:55.516Z,5.30
2022-09-05T01:17:39.790Z,5.20
2022-09-05T01:20:20.537Z,5.43
2022-09-05T01:23:18.282Z,5.00
2022-09-05T01:26:01.270Z,5.20
2022-09-05T01:29:16.292Z,4.83
2022-09-05T01:31:29.280Z,5.33
2022-09-05T01:34:02.402Z,5.17
2022-09-05T01:36:42.293Z,5.60
2022-09-05T01:39:18.569Z,5.20
2022-09-05T01:42:09.851Z,5.50
2022-09-05T01:44:49.764Z,5.47
2022-09-05T01:47:30.994Z,6.33
2022-09-05T01:50:07.270Z,5.80
2022-09-05T01:52:59.225Z,5.70
2022-09-05T01:56:03.979Z,5.40
2022-09-05T01:58:45.536Z,5.53
2022-09-05T02:01:25.357Z,5.87
2022-09-05T02:04:14.796Z,5.90
2022-09-05T02:06:49.913Z,5.97
2022-09-05T02:09:38.444Z,6.40
2022-09-05T02:12:10.599Z,5.87
2022-09-05T02:14:41.377Z,5.70
2022-09-05T02:17:27.330Z,6.20
2022-09-05T02:20:23.538Z,6.37
2022-09-05T02:23:25.999Z,5.67
2022-09-05T02:26:03.656Z,5.60
2022-09-05T02:28:39.906Z,6.20
2022-09-05T02:31:20.120Z,6.00
2022-09-05T02:33:57.596Z,5.90
2022-09-05T02:36:36.606Z,6.23
2022-09-05T02:45:00.641Z,6.80
2022-09-05T02:45:14.076Z,6.40
2022-09-05T02:45:17.257Z,6.03
2022-09-05T02:47:51.344Z,5.27
2022-09-05T02:53:19.691Z,5.60
2022-09-05T02:57:35.598Z,5.30
2022-09-05T02:57:37.803Z,5.10
2022-09-05T02:59:35.871Z,5.43
2022-09-05T03:02:25.545Z,5.57
2022-09-05T03:05:04.833Z,5.90
2022-09-05T03:07:51.868Z,5.33
2022-09-05T03:10:53.345Z,5.97
2022-09-05T03:13:54.679Z,6.20
2022-09-05T03:16:59.999Z,6.03
2022-09-05T03:20:15.017Z,6.20
2022-09-05T03:23:11.250Z,6.57
2022-09-05T03:26:09.233Z,7.07
2022-09-05T03:29:12.437Z,7.20
2022-09-05T03:31:53.117Z,6.47
2022-09-05T03:34:46.410Z,7.57
2022-09-05T03:37:49.686Z,7.17
2022-09-05T03:40:37.406Z,6.93
2022-09-05T03:43:32.527Z,8.10
2022-09-05T03:46:11.427Z,7.13
2022-09-05T03:49:20.000Z,7.87
2022-09-05T03:57:13.048Z,7.97
2022-09-05T03:57:26.492Z,7.03
2022-09-05T03:58:18.256Z,8.07
2022-09-05T04:00:49.128Z,8.20
2022-09-05T04:08:08.280Z,8.37
2022-09-05T04:08:28.209Z,8.63
2022-09-05T04:09:37.098Z,7.90
2022-09-05T04:12:16.735Z,8.80
2022-09-05T04:14:48.346Z,9.60
2022-09-05T04:17:25.748Z,8.70
2022-09-05T04:19:56.289Z,9.80
2022-09-05T04:22:29.658Z,9.57
2022-09-05T04:25:03.474Z,10.23
2022-09-05T04:27:39.142Z,9.30
2022-09-05T04:30:38.555Z,9.10
2022-09-05T04:33:19.389Z,9.40
2022-09-05T04:35:56.633Z,8.37
2022-09-05T04:38:37.173Z,8.33
2022-09-05T04:41:09.765Z,8.33
2022-09-05T04:43:42.227Z,9.30
2022-09-05T04:46:19.353Z,9.50
2022-09-05T04:48:54.548Z,8.17
2022-09-05T04:51:56.284Z,9.17
2022-09-05T04:54:34.850Z,9.20
2022-09-05T04:57:23.255Z,8.97
2022-09-05T05:04:26.087Z,8.70
2022-09-05T05:06:08.361Z,8.63
2022-09-05T05:06:10.662Z,9.27
2022-09-05T05:08:39.247Z,9.93
2022-09-05T05:17:08.827Z,9.40
2022-09-05T05:17:54.427Z,9.90
2022-09-05T05:18:13.274Z,8.63
2022-09-05T05:19:48.852Z,9.90
2022-09-05T05:22:35.655Z,9.27
2022-09-05T05:25:03.769Z,9.17
2022-09-05T05:27:35.600Z,9.80
2022-09-05T05:30:05.513Z,9.93
2022-09-05T05:32:45.601Z,10.23
2022-09-05T05:35:15.997Z,9.73
2022-09-05T05:37:46.746Z,9.80
2022-09-05T05:40:21.048Z,10.40
2022-09-05T05:42:49.222Z,10.10
2022-09-05T05:45:19.172Z,9.50
2022-09-05T05:47:50.574Z,10.57
2022-09-05T05:50:33.216Z,11.20
2022-09-05T05:53:33.486Z,9.17
2022-09-05T05:56:48.826Z,9.77
2022-09-05T05:59:33.402Z,10.63
2022-09-05T06:02:28.916Z,10.33
2022-09-05T06:05:25.839Z,10.33
2022-09-05T06:10:03.795Z,11.40
2022-09-05T06:14:58.126Z,11.07
2022-09-05T06:15:10.137Z,11.70
2022-09-05T06:18:20.582Z,10.57
2022-09-05T06:22:10.594Z,9.50
2022-09-05T06:24:41.550Z,9.90
2022-09-05T06:27:33.661Z,10.83
2022-09-05T06:30:07.832Z,9.10
2022-09-05T06:32:58.448Z,11.20
2022-09-05T06:35:40.305Z,9.70
2022-09-05T06:38:27.443Z,10.87
2022-09-05T06:41:04.549Z,10.07
2022-09-05T06:43:38.726Z,9.40
2022-09-05T06:46:54.671Z,9.40
2022-09-05T06:49:30.091Z,8.87
2022-09-05T06:52:37.627Z,9.37
2022-09-05T06:55:42.746Z,7.53
2022-09-05T06:58:49.201Z,8.43
2022-09-05T07:01:35.687Z,9.07
2022-09-05T07:05:18.437Z,8.60
2022-09-05T07:07:16.970Z,8.53
2022-09-05T07:09:55.386Z,8.70
2022-09-05T07:12:30.113Z,8.10
2022-09-05T07:15:09.446Z,8.37
2022-09-05T07:18:09.549Z,6.93
2022-09-05T07:21:17.104Z,6.50
2022-09-05T07:24:08.847Z,6.67
2022-09-05T07:26:54.652Z,6.23
2022-09-05T07:29:28.114Z,6.47
2022-09-05T07:31:57.168Z,6.13
2022-09-05T07:34:28.834Z,5.83
2022-09-05T07:37:15.493Z,6.40
2022-09-05T07:39:49.058Z,5.73
2022-09-05T07:42:21.393Z,5.40
2022-09-05T07:44:56.428Z,6.10
2022-09-05T07:47:28.557Z,5.47
2022-09-05T07:53:18.720Z,5.70
2022-09-05T07:56:54.031Z,5.63
2022-09-05T07:56:59.808Z,5.03
2022-09-05T07:58:25.947Z,4.77
2022-09-05T08:00:58.259Z,4.73
2022-09-05T08:03:29.172Z,4.70
2022-09-05T08:06:00.534Z,4.80
2022-09-05T08:08:31.700Z,4.73
2022-09-05T08:11:23.588Z,5.03
2022-09-05T08:14:35.430Z,4.50
2022-09-05T08:16:50.054Z,5.17
2022-09-05T08:19:57.968Z,5.07
2022-09-05T08:22:52.163Z,5.00
2022-09-05T08:25:23.642Z,5.00
2022-09-05T08:28:06.337Z,5.10
2022-09-05T08:30:40.564Z,4.73
2022-09-05T08:33:14.370Z,4.70
2022-09-05T08:35:45.339Z,5.00
2022-09-05T08:38:14.731Z,5.07
2022-09-05T08:40:48.823Z,5.40
2022-09-05T08:46:19.997Z,4.73
2022-09-05T08:46:46.697Z,5.50
2022-09-05T08:49:46.196Z,4.73
2022-09-05T08:52:15.790Z,5.00
2022-09-05T08:55:06.247Z,4.90
2022-09-05T08:57:56.170Z,4.57
2022-09-05T09:00:27.503Z,5.80
2022-09-05T09:03:10.290Z,5.13
2022-09-05T09:06:13.435Z,4.60
2022-09-05T09:08:54.471Z,4.83
2022-09-05T09:11:29.626Z,5.90
2022-09-05T09:14:41.709Z,5.53
2022-09-05T09:17:21.546Z,4.73
2022-09-05T09:19:52.216Z,6.00
2022-09-05T09:22:33.189Z,6.70
2022-09-05T09:25:11.989Z,6.23
2022-09-05T09:28:46.548Z,6.50
2022-09-05T09:30:57.988Z,6.00
2022-09-05T09:33:33.181Z,5.93
2022-09-05T09:36:07.928Z,5.50
2022-09-05T09:38:44.010Z,6.67
2022-09-05T09:41:32.893Z,6.50
2022-09-05T09:44:23.347Z,6.03
2022-09-05T09:46:53.924Z,6.17
2022-09-05T09:49:36.979Z,6.70
2022-09-05T09:52:44.949Z,6.17
2022-09-05T09:55:47.836Z,6.17
2022-09-05T09:58:32.300Z,5.87
2022-09-05T10:01:34.916Z,5.77
2022-09-05T10:10:33.875Z,5.60
2022-09-05T10:10:57.449Z,5.70
2022-09-05T10:11:37.563Z,5.37
2022-09-05T10:14:35.393Z,5.83
2022-09-05T10:17:22.321Z,5.40
2022-09-05T10:20:12.110Z,5.43
2022-09-05T10:22:52.562Z,5.73
2022-09-05T10:25:40.773Z,5.13
2022-09-05T10:28:13.811Z,5.33
2022-09-05T10:31:52.790Z,4.87
2022-09-05T10:35:09.219Z,5.43
2022-09-05T10:36:29.396Z,5.20
2022-09-05T10:39:06.121Z,4.77
2022-09-05T10:41:45.413Z,5.50
2022-09-05T10:44:15.054Z,5.07
2022-09-05T10:46:57.080Z,5.17
2022-09-05T10:49:27.321Z,4.90
2022-09-05T10:52:17.916Z,5.10
2022-09-05T10:55:14.624Z,4.83
2022-09-05T10:57:57.800Z,4.50
2022-09-05T11:02:22.237Z,4.43
2022-09-05T11:03:50.339Z,4.67
2022-09-05T11:06:25.216Z,4.63
2022-09-05T11:09:00.959Z,4.73
2022-09-05T11:11:34.560Z,4.67
2022-09-05T11:14:07.392Z,4.77
2022-09-05T11:16:56.103Z,4.80
2022-09-05T11:19:30.990Z,4.70
2022-09-05T11:22:19.881Z,4.70
2022-09-05T11:24:55.543Z,4.23
2022-09-05T11:27:30.311Z,4.67
2022-09-05T11:30:03.584Z,4.10
2022-09-05T11:34:24.700Z,4.10
2022-09-05T11:39:54.440Z,3.83
2022-09-05T11:40:08.558Z,3.73
2022-09-05T11:42:19.925Z,3.87
2022-09-05T11:45:16.159Z,3.90
2022-09-05T11:47:53.497Z,4.37
2022-09-05T11:50:44.646Z,4.40
2022-09-05T11:53:46.118Z,4.03
2022-09-05T11:56:49.611Z,3.80
2022-09-05T11:59:45.002Z,3.80
2022-09-05T12:02:27.821Z,3.90
2022-09-05T12:05:48.817Z,4.10
2022-09-05T12:08:06.360Z,4.10
2022-09-05T12:10:48.977Z,3.90
2022-09-05T12:13:32.227Z,3.77
2022-09-05T12:16:08.100Z,3.80
2022-09-05T12:21:38.843Z,4.03
2022-09-05T12:25:16.977Z,4.03
2022-09-05T12:27:40.098Z,3.87
2022-09-05T12:29:59.738Z,4.17
2022-09-05T12:34:39.788Z,3.77
2022-09-05T12:36:11.619Z,3.63
2022-09-05T12:41:33.574Z,3.80
2022-09-05T12:41:43.842Z,3.50
2022-09-05T12:42:10.127Z,3.83
2022-09-05T12:44:44.503Z,4.00
2022-09-05T12:47:18.705Z,3.97
2022-09-05T12:50:02.449Z,4.10
2022-09-05T12:52:42.492Z,3.53
2022-09-05T12:55:12.818Z,3.93
2022-09-05T13:02:29.407Z,4.47
2022-09-05T13:03:03.809Z,4.17
2022-09-05T13:03:33.676Z,3.60
2022-09-05T13:06:06.450Z,3.90
2022-09-05T13:08:44.110Z,3.80
2022-09-05T13:14:49.233Z,4.23
2022-09-05T13:14:58.213Z,3.70
2022-09-05T13:16:56.518Z,4.33
2022-09-05T13:19:32.970Z,4.10
2022-09-05T13:22:03.399Z,4.00
2022-09-05T13:24:35.079Z,4.00
2022-09-05T13:27:12.727Z,4.27
2022-09-05T13:30:59.436Z,3.93
2022-09-05T13:38:02.136Z,3.63
2022-09-05T13:38:20.015Z,4.20
2022-09-05T13:38:48.732Z,3.70
2022-09-05T13:41:26.855Z,3.83
2022-09-05T13:44:00.341Z,3.77
2022-09-05T13:46:57.903Z,4.17
2022-09-05T13:49:31.666Z,4.00
2022-09-05T13:52:26.156Z,3.70
2022-09-05T13:55:04.600Z,3.53
2022-09-05T13:57:36.954Z,4.00
2022-09-05T14:00:28.166Z,4.10
2022-09-05T14:03:42.159Z,3.53
2022-09-05T14:06:45.062Z,3.83
2022-09-05T14:09:37.321Z,3.87
2022-09-05T14:12:32.762Z,3.60
2022-09-05T14:15:11.012Z,3.60
2022-09-05T14:18:02.297Z,3.50
2022-09-05T14:21:16.334Z,3.93
2022-09-05T14:23:53.345Z,4.00
2022-09-05T14:26:26.634Z,4.00
2022-09-05T14:29:02.231Z,3.90
2022-09-05T14:37:07.088Z,4.10
2022-09-05T14:37:49.871Z,3.90
2022-09-05T14:38:04.417Z,3.97
2022-09-05T14:41:15.841Z,3.83
2022-09-05T14:44:11.588Z,3.37
2022-09-05T14:47:35.125Z,3.63
2022-09-05T14:50:17.827Z,4.23
2022-09-05T14:56:13.725Z,3.47
2022-09-05T15:02:41.797Z,4.20
2022-09-05T15:02:53.581Z,3.70
2022-09-05T15:04:40.866Z,3.63
2022-09-05T15:07:16.702Z,4.10
2022-09-05T15:12:20.002Z,3.70
2022-09-05T15:13:17.253Z,3.77
2022-09-05T15:16:00.668Z,3.70
2022-09-05T15:18:32.993Z,3.40
2022-09-05T15:21:33.444Z,3.17
2022-09-05T15:24:13.645Z,3.30
2022-09-05T15:26:53.293Z,3.17
2022-09-05T15:29:24.456Z,3.77
2022-09-05T15:31:59.450Z,3.23
2022-09-05T15:34:38.519Z,3.60
2022-09-05T15:37:29.838Z,3.47
2022-09-05T15:40:02.798Z,3.13
2022-09-05T15:42:33.524Z,3.13
2022-09-05T15:45:10.914Z,3.10
2022-09-05T15:47:42.471Z,3.50
2022-09-05T15:50:21.818Z,3.30
2022-09-05T15:52:55.308Z,3.40
2022-09-05T15:55:26.169Z,3.20
2022-09-05T15:57:57.787Z,3.17
2022-09-05T16:00:39.937Z,3.57
2022-09-05T16:04:12.849Z,3.50
2022-09-05T16:10:38.055Z,4.50
2022-09-05T16:10:50.848Z,3.30
2022-09-05T16:14:39.554Z,3.77
2022-09-05T16:23:12.737Z,3.20
2022-09-05T16:23:24.445Z,4.40
2022-09-05T16:23:29.891Z,3.57
2022-09-05T16:25:52.852Z,4.90
2022-09-05T16:28:23.818Z,3.60
2022-09-05T16:31:00.969Z,4.40
2022-09-05T16:33:32.094Z,3.63
2022-09-05T16:36:03.623Z,3.50
2022-09-05T16:38:49.625Z,3.90
2022-09-05T16:41:24.473Z,3.40
2022-09-05T16:43:55.267Z,3.60
2022-09-05T16:46:28.064Z,3.20
2022-09-05T16:49:00.841Z,3.60
2022-09-05T16:51:35.376Z,4.20
2022-09-05T16:54:11.280Z,3.40
2022-09-05T16:56:43.030Z,4.03
2022-09-05T16:59:15.434Z,4.47
2022-09-05T17:02:05.815Z,4.63
2022-09-05T17:05:03.536Z,4.07
2022-09-05T17:07:59.220Z,5.10
2022-09-05T17:10:29.083Z,5.50
2022-09-05T17:12:57.375Z,5.40
2022-09-05T17:15:27.669Z,4.43
2022-09-05T17:18:20.090Z,4.60
2022-09-05T17:20:49.911Z,3.67
2022-09-05T17:25:14.011Z,3.47
2022-09-05T17:29:36.097Z,3.77
2022-09-05T17:29:45.399Z,5.00
2022-09-05T17:31:58.471Z,4.00
2022-09-05T17:34:50.856Z,3.30
2022-09-05T17:37:42.983Z,3.60
2022-09-05T17:40:38.171Z,4.90
2022-09-05T17:43:07.758Z,4.63
2022-09-05T17:45:45.024Z,3.60
2022-09-05T17:48:16.643Z,4.07
2022-09-05T17:50:51.473Z,6.17
2022-09-05T17:53:25.178Z,5.90
2022-09-05T17:56:12.916Z,5.87
2022-09-05T17:59:02.139Z,5.50
2022-09-05T18:01:32.523Z,8.00
2022-09-05T18:04:17.322Z,6.50
2022-09-05T18:06:59.563Z,5.20
2022-09-05T18:09:58.976Z,4.67
2022-09-05T18:13:12.658Z,5.20
2022-09-05T18:16:18.336Z,5.03
2022-09-05T18:19:27.686Z,4.73
2022-09-05T18:22:04.224Z,3.93
2022-09-05T18:24:40.081Z,3.83
2022-09-05T18:30:10.089Z,4.40
2022-09-05T18:32:43.811Z,3.60
2022-09-05T18:35:27.943Z,3.77
2022-09-05T18:38:34.457Z,3.60
2022-09-05T18:41:21.787Z,3.50
2022-09-05T18:44:12.490Z,3.30
2022-09-05T18:46:46.111Z,3.30
2022-09-05T18:50:09.879Z,3.57
2022-09-05T18:52:10.449Z,3.70
2022-09-05T18:54:42.427Z,3.33
2022-09-05T18:57:27.331Z,3.60
2022-09-05T19:00:00.060Z,3.80
2022-09-05T19:02:49.869Z,3.70
2022-09-05T19:05:28.733Z,3.93
2022-09-05T19:07:59.474Z,3.87
2022-09-05T19:10:34.563Z,3.97
2022-09-05T19:13:11.063Z,3.80
2022-09-05T19:15:48.248Z,3.37
2022-09-05T19:18:27.417Z,3.87
2022-09-05T19:21:12.183Z,3.90
2022-09-05T19:23:50.044Z,4.40
2022-09-05T19:26:20.345Z,4.20
2022-09-05T19:35:45.438Z,3.53
2022-09-05T19:36:46.724Z,3.53
2022-09-05T19:36:55.590Z,3.77
2022-09-05T19:37:26.103Z,3.53
2022-09-05T19:44:33.987Z,3.70
2022-09-05T19:47:39.853Z,4.03
2022-09-05T19:47:49.924Z,3.73
2022-09-05T19:48:28.063Z,4.17
2022-09-05T19:50:57.194Z,3.87
2022-09-05T19:53:25.904Z,4.13
2022-09-05T19:55:54.729Z,4.27
2022-09-05T19:58:27.077Z,3.80
2022-09-05T20:01:03.725Z,3.53
2022-09-05T20:03:38.895Z,3.93
2022-09-05T20:06:29.592Z,3.90
2022-09-05T20:09:09.501Z,3.60
2022-09-05T20:11:46.459Z,3.80
2022-09-05T20:14:25.186Z,3.90
2022-09-05T20:16:55.907Z,3.70
2022-09-05T20:19:30.860Z,3.97
2022-09-05T20:22:37.108Z,4.30
2022-09-05T20:24:52.759Z,4.00
2022-09-05T20:27:27.524Z,4.53
2022-09-05T20:29:59.797Z,3.80
2022-09-05T20:32:38.734Z,4.47
2022-09-05T20:38:06.842Z,4.10
2022-09-05T20:43:16.873Z,3.80
2022-09-05T20:43:36.697Z,4.30
2022-09-05T20:44:39.802Z,4.20
2022-09-05T20:51:31.559Z,4.00
2022-09-05T20:54:06.677Z,3.90
2022-09-05T20:54:21.743Z,4.27
2022-09-05T20:55:42.554Z,5.13
2022-09-05T20:58:13.411Z,4.50
2022-09-05T21:01:15.429Z,4.37
2022-09-05T21:03:38.021Z,4.40
2022-09-05T21:06:23.695Z,4.47
2022-09-05T21:08:52.923Z,4.50
2022-09-05T21:11:30.595Z,4.43
2022-09-05T21:14:01.937Z,4.17
2022-09-05T21:16:33.319Z,3.80
2022-09-05T21:19:03.150Z,4.07
2022-09-05T21:21:32.915Z,4.50
2022-09-05T21:24:15.929Z,4.17
2022-09-05T21:26:49.673Z,4.30
2022-09-05T21:29:26.469Z,4.17
2022-09-05T21:32:02.553Z,3.80
2022-09-05T21:34:45.073Z,4.40
2022-09-05T21:37:14.893Z,4.50
2022-09-05T21:39:59.318Z,4.30
2022-09-05T21:47:33.845Z,4.23
2022-09-05T21:47:42.995Z,4.43
2022-09-05T21:48:08.000Z,4.17
2022-09-05T21:50:40.158Z,3.87
2022-09-05T21:56:37.288Z,4.27
2022-09-05T21:59:14.781Z,4.20
2022-09-05T21:59:32.964Z,4.20
2022-09-05T22:01:52.581Z,4.10
2022-09-05T22:04:22.002Z,4.33
2022-09-05T22:06:54.102Z,4.20
2022-09-05T22:09:23.300Z,4.23
2022-09-05T22:11:51.585Z,4.20
2022-09-05T22:14:20.693Z,4.37
2022-09-05T22:16:50.414Z,4.50
2022-09-05T22:19:22.791Z,3.77
2022-09-05T22:21:56.011Z,4.57
2022-09-05T22:24:26.195Z,4.20
2022-09-05T22:27:12.714Z,3.90
2022-09-05T22:29:41.365Z,4.40
2022-09-05T22:32:09.836Z,4.77
2022-09-05T22:34:37.858Z,4.20
2022-09-05T22:37:07.634Z,4.33
2022-09-05T22:39:36.321Z,4.70
2022-09-05T22:42:10.238Z,4.80
2022-09-05T22:44:40.141Z,4.67
2022-09-05T22:47:09.445Z,4.20
2022-09-05T22:49:37.946Z,4.67
2022-09-05T22:52:08.841Z,4.47
2022-09-05T22:54:37.195Z,4.87
2022-09-05T22:57:05.634Z,4.57
2022-09-05T22:59:33.705Z,4.93
2022-09-05T23:02:01.813Z,4.50
2022-09-05T23:04:30.020Z,4.73
2022-09-05T23:07:02.317Z,5.13
2022-09-05T23:09:31.674Z,5.10
2022-09-05T23:11:59.690Z,4.70
2022-09-05T23:14:27.730Z,4.70
2022-09-05T23:16:56.131Z,5.20
2022-09-05T23:19:24.144Z,4.93
2022-09-05T23:21:52.214Z,5.10
2022-09-05T23:24:20.226Z,5.60
2022-09-05T23:26:49.601Z,5.30
2022-09-05T23:29:17.625Z,5.20
2022-09-05T23:31:45.702Z,5.13
2022-09-05T23:34:13.750Z,5.97
2022-09-05T23:36:41.812Z,5.80
2022-09-05T23:39:10.443Z,5.70
2022-09-05T23:41:38.466Z,5.47
2022-09-05T23:44:07.929Z,5.53
2022-09-05T23:46:37.407Z,5.83
2022-09-05T23:49:05.438Z,5.37
2022-09-05T23:51:33.508Z,5.57
2022-09-05T23:54:01.543Z,5.50
2022-09-05T23:56:29.618Z,5.63
2022-09-05T23:58:57.620Z,5.80
